Airfield :







YOU CAN JOIN US ON...

 
LOGIN :

Register | Disclaimer

   EN    FR    IT 

 









Legend :    VFR   Marginal VFR   IFR   Intensive IFR   Very Intensive IFR
Visi :
Ceiling :
>= 8 km
>= 3000ft
5 to 8 km
1000 to 3000 ft
1500m to 5 km
500 to 1000 ft
800 to 1500m
200 to 500 ft
< 800m
< 200 ft
Symbols :   Thunderstorms  Fog  Heavy snow  Heavy precipitations  Wind > 20 kt






- Airport Elevation : 266 ft
- IATA code : MHT


KMHT - Manchester

CURRENT METAR :
  • 192353Z 29003KT 10SM CLR 00/M15 A3021 RMK AO2 SLP247 4/002 T00001150 10039 20000 53026

EXPIRED METARs :
  • 192253Z 32005KT 10SM FEW250 01/M16 A3018 RMK AO2 SLP237 T00111156
  • 192153Z 32010G18KT 10SM FEW250 02/M16 A3015 RMK AO2 SLP229 T00221161

TAF KMHT
Valid from the 20 at 00:00 until the 21 at 00:00 UTC


192320Z 2000/2024 30006KT P6SM SKC
FM201500 30009G16KT P6SM SCT050



MET'MAP, your aeronautical weather chart ! - Copyright ORBIFLY December 2007 - Disclaimer

ORBIFLY MET'MAP TEAM :

Programming & Development : Alexandra Zaïnal
Concept & original design : Baudouin d'Aumeries
Assistance for programming : Marc-Olivier Méhu
Technical & hardware support : Manuel Goepfert

Contact : metmap@orbifly.com




SOURCES & CREDITS :

   NOAA